sensor_id;sensor_type;location;lat;lon;timestamp;pressure;altitude;pressure_sealevel;temperature;humidity
69980;BME280;57318;56.232;43.944;2023-03-01T00:01:27;97561.81;;;-5.62;75.60
69980;BME280;57318;56.232;43.944;2023-03-01T00:03:54;97561.06;;;-5.64;75.75
69980;BME280;57318;56.232;43.944;2023-03-01T00:06:21;97561.81;;;-5.62;76.00
69980;BME280;57318;56.232;43.944;2023-03-01T00:08:47;97562.59;;;-5.60;75.89
69980;BME280;57318;56.232;43.944;2023-03-01T00:13:47;97560.13;;;-5.63;75.57
69980;BME280;57318;56.232;43.944;2023-03-01T00:16:21;97560.19;;;-5.65;75.53
69980;BME280;57318;56.232;43.944;2023-03-01T00:18:47;97560.41;;;-5.69;75.81
69980;BME280;57318;56.232;43.944;2023-03-01T00:21:13;97554.41;;;-5.70;76.11
69980;BME280;57318;56.232;43.944;2023-03-01T00:23:39;97557.06;;;-5.71;76.08
69980;BME280;57318;56.232;43.944;2023-03-01T00:26:11;97548.81;;;-5.80;75.75
69980;BME280;57318;56.232;43.944;2023-03-01T00:28:37;97551.53;;;-5.83;75.76
69980;BME280;57318;56.232;43.944;2023-03-01T00:31:04;97553.28;;;-5.83;75.81
69980;BME280;57318;56.232;43.944;2023-03-01T00:33:31;97564.47;;;-5.83;75.49
69980;BME280;57318;56.232;43.944;2023-03-01T00:35:58;97550.75;;;-5.85;75.22
69980;BME280;57318;56.232;43.944;2023-03-01T00:38:24;97559.56;;;-5.89;74.35
69980;BME280;57318;56.232;43.944;2023-03-01T00:40:49;97554.59;;;-5.93;74.62
69980;BME280;57318;56.232;43.944;2023-03-01T00:43:15;97554.81;;;-5.98;74.41
69980;BME280;57318;56.232;43.944;2023-03-01T00:45:40;97557.34;;;-5.96;74.29
69980;BME280;57318;56.232;43.944;2023-03-01T00:48:06;97553.75;;;-5.94;74.33
69980;BME280;57318;56.232;43.944;2023-03-01T00:50:32;97542.59;;;-5.96;74.32
69980;BME280;57318;56.232;43.944;2023-03-01T00:52:57;97548.50;;;-5.92;73.30
69980;BME280;57318;56.232;43.944;2023-03-01T00:55:23;97549.22;;;-5.89;73.54
69980;BME280;57318;56.232;43.944;2023-03-01T00:57:49;97538.16;;;-5.92;72.06
69980;BME280;57318;56.232;43.944;2023-03-01T01:00:15;97551.03;;;-5.91;72.21
69980;BME280;57318;56.232;43.944;2023-03-01T01:02:41;97546.56;;;-5.87;72.48
69980;BME280;57318;56.232;43.944;2023-03-01T01:05:07;97538.72;;;-5.86;72.40
69980;BME280;57318;56.232;43.944;2023-03-01T01:07:33;97538.09;;;-5.91;71.69
69980;BME280;57318;56.232;43.944;2023-03-01T01:09:58;97546.00;;;-5.94;71.17
69980;BME280;57318;56.232;43.944;2023-03-01T01:12:24;97547.72;;;-5.94;71.01
69980;BME280;57318;56.232;43.944;2023-03-01T01:14:49;97540.19;;;-5.99;71.01
69980;BME280;57318;56.232;43.944;2023-03-01T01:17:15;97539.44;;;-6.01;70.92
69980;BME280;57318;56.232;43.944;2023-03-01T01:19:42;97545.50;;;-6.02;70.90
69980;BME280;57318;56.232;43.944;2023-03-01T01:22:07;97545.50;;;-6.02;71.32
69980;BME280;57318;56.232;43.944;2023-03-01T01:24:33;97550.81;;;-6.05;71.01
69980;BME280;57318;56.232;43.944;2023-03-01T01:26:59;97551.72;;;-6.06;70.79
69980;BME280;57318;56.232;43.944;2023-03-01T01:29:24;97555.22;;;-6.07;70.67
69980;BME280;57318;56.232;43.944;2023-03-01T01:31:50;97552.56;;;-6.06;70.69
69980;BME280;57318;56.232;43.944;2023-03-01T01:34:18;97549.91;;;-6.04;70.62
69980;BME280;57318;56.232;43.944;2023-03-01T01:36:52;97562.69;;;-6.01;70.98
69980;BME280;57318;56.232;43.944;2023-03-01T01:39:21;97557.66;;;-6.04;70.66
69980;BME280;57318;56.232;43.944;2023-03-01T01:41:48;97557.78;;;-6.07;70.69
69980;BME280;57318;56.232;43.944;2023-03-01T01:49:42;97555.41;;;-6.12;71.66
69980;BME280;57318;56.232;43.944;2023-03-01T01:52:11;97555.59;;;-6.17;71.28
69980;BME280;57318;56.232;43.944;2023-03-01T01:54:56;97553.22;;;-6.21;71.36
69980;BME280;57318;56.232;43.944;2023-03-01T01:57:51;97552.50;;;-6.25;70.89
69980;BME280;57318;56.232;43.944;2023-03-01T02:00:23;97548.16;;;-6.24;71.17
69980;BME280;57318;56.232;43.944;2023-03-01T02:02:53;97560.31;;;-6.26;70.93
69980;BME280;57318;56.232;43.944;2023-03-01T02:05:42;97556.06;;;-6.27;70.87
69980;BME280;57318;56.232;43.944;2023-03-01T02:08:11;97556.13;;;-6.29;71.22
69980;BME280;57318;56.232;43.944;2023-03-01T02:10:38;97550.31;;;-6.34;70.75
69980;BME280;57318;56.232;43.944;2023-03-01T02:13:05;97554.66;;;-6.35;71.15
69980;BME280;57318;56.232;43.944;2023-03-01T02:15:35;97555.47;;;-6.34;71.21
69980;BME280;57318;56.232;43.944;2023-03-01T02:18:03;97562.59;;;-6.39;71.48
69980;BME280;57318;56.232;43.944;2023-03-01T02:20:39;97556.66;;;-6.41;71.04
69980;BME280;57318;56.232;43.944;2023-03-01T02:23:08;97565.31;;;-6.42;71.44
69980;BME280;57318;56.232;43.944;2023-03-01T02:25:49;97564.66;;;-6.47;71.27
69980;BME280;57318;56.232;43.944;2023-03-01T02:28:25;97558.56;;;-6.46;71.76
69980;BME280;57318;56.232;43.944;2023-03-01T02:30:51;97564.72;;;-6.49;71.46
69980;BME280;57318;56.232;43.944;2023-03-01T02:33:36;97566.50;;;-6.51;71.36
69980;BME280;57318;56.232;43.944;2023-03-01T02:36:25;97565.81;;;-6.55;71.59
69980;BME280;57318;56.232;43.944;2023-03-01T02:38:54;97572.13;;;-6.62;71.51
69980;BME280;57318;56.232;43.944;2023-03-01T02:41:22;97565.59;;;-6.71;71.50
69980;BME280;57318;56.232;43.944;2023-03-01T02:43:49;97557.22;;;-6.76;72.11
69980;BME280;57318;56.232;43.944;2023-03-01T02:46:17;97567.91;;;-6.85;72.24
69980;BME280;57318;56.232;43.944;2023-03-01T02:48:46;97573.38;;;-6.93;72.10
69980;BME280;57318;56.232;43.944;2023-03-01T02:54:05;97569.22;;;-6.97;73.33
69980;BME280;57318;56.232;43.944;2023-03-01T02:56:34;97573.50;;;-6.96;73.54
69980;BME280;57318;56.232;43.944;2023-03-01T02:59:00;97569.16;;;-6.95;73.51
69980;BME280;57318;56.232;43.944;2023-03-01T03:01:27;97571.84;;;-6.98;73.54
69980;BME280;57318;56.232;43.944;2023-03-01T03:04:03;97570.19;;;-6.99;73.54
69980;BME280;57318;56.232;43.944;2023-03-01T03:06:29;97573.78;;;-7.03;73.88
69980;BME280;57318;56.232;43.944;2023-03-01T03:08:54;97567.91;;;-7.07;73.96
69980;BME280;57318;56.232;43.944;2023-03-01T03:11:20;97569.63;;;-7.08;74.02
69980;BME280;57318;56.232;43.944;2023-03-01T03:13:46;97563.09;;;-7.16;74.18
69980;BME280;57318;56.232;43.944;2023-03-01T03:16:14;97575.09;;;-7.15;74.47
69980;BME280;57318;56.232;43.944;2023-03-01T03:18:40;97576.00;;;-7.16;74.60
69980;BME280;57318;56.232;43.944;2023-03-01T03:21:09;97573.53;;;-7.19;74.72
69980;BME280;57318;56.232;43.944;2023-03-01T03:23:36;97569.94;;;-7.15;74.79
69980;BME280;57318;56.232;43.944;2023-03-01T03:26:02;97580.13;;;-7.12;75.08
69980;BME280;57318;56.232;43.944;2023-03-01T03:28:34;97571.50;;;-7.11;74.53
69980;BME280;57318;56.232;43.944;2023-03-01T03:31:00;97580.00;;;-7.09;74.60
69980;BME280;57318;56.232;43.944;2023-03-01T03:33:32;97580.00;;;-7.09;74.25
69980;BME280;57318;56.232;43.944;2023-03-01T03:35:58;97580.88;;;-7.09;73.95
69980;BME280;57318;56.232;43.944;2023-03-01T03:38:24;97578.25;;;-7.07;74.18
69980;BME280;57318;56.232;43.944;2023-03-01T03:41:08;97582.41;;;-7.04;73.74
69980;BME280;57318;56.232;43.944;2023-03-01T03:43:36;97579.00;;;-7.05;73.54
69980;BME280;57318;56.232;43.944;2023-03-01T03:46:03;97578.13;;;-7.04;73.59
69980;BME280;57318;56.232;43.944;2023-03-01T03:48:39;97580.53;;;-6.99;73.29
69980;BME280;57318;56.232;43.944;2023-03-01T03:51:05;97584.00;;;-7.00;72.73
69980;BME280;57318;56.232;43.944;2023-03-01T03:53:31;97588.22;;;-6.98;73.16
69980;BME280;57318;56.232;43.944;2023-03-01T03:55:57;97586.41;;;-6.96;72.75
69980;BME280;57318;56.232;43.944;2023-03-01T03:58:25;97588.09;;;-6.95;73.01
69980;BME280;57318;56.232;43.944;2023-03-01T04:00:53;97584.47;;;-6.91;72.68
69980;BME280;57318;56.232;43.944;2023-03-01T04:03:21;97588.75;;;-6.90;72.74
69980;BME280;57318;56.232;43.944;2023-03-01T04:05:48;97584.22;;;-6.84;72.76
69980;BME280;57318;56.232;43.944;2023-03-01T04:08:16;97587.56;;;-6.82;72.60
69980;BME280;57318;56.232;43.944;2023-03-01T04:10:47;97590.97;;;-6.80;72.70
69980;BME280;57318;56.232;43.944;2023-03-01T04:13:16;97587.47;;;-6.79;72.20
69980;BME280;57318;56.232;43.944;2023-03-01T04:15:42;97595.31;;;-6.82;72.02
69980;BME280;57318;56.232;43.944;2023-03-01T04:18:13;97604.72;;;-6.80;71.79
69980;BME280;57318;56.232;43.944;2023-03-01T04:20:40;97609.75;;;-6.77;71.84
69980;BME280;57318;56.232;43.944;2023-03-01T04:23:14;97608.00;;;-6.76;71.88
69980;BME280;57318;56.232;43.944;2023-03-01T04:25:53;97603.56;;;-6.73;71.34
69980;BME280;57318;56.232;43.944;2023-03-01T04:28:23;97608.56;;;-6.68;71.47
69980;BME280;57318;56.232;43.944;2023-03-01T04:30:53;97606.56;;;-6.61;72.08
69980;BME280;57318;56.232;43.944;2023-03-01T04:33:19;97613.25;;;-6.57;71.78
69980;BME280;57318;56.232;43.944;2023-03-01T04:35:45;97614.06;;;-6.55;71.14
69980;BME280;57318;56.232;43.944;2023-03-01T04:38:15;97620.78;;;-6.51;71.39
69980;BME280;57318;56.232;43.944;2023-03-01T04:40:41;97624.09;;;-6.47;71.56
69980;BME280;57318;56.232;43.944;2023-03-01T04:43:09;97617.13;;;-6.45;71.33
69980;BME280;57318;56.232;43.944;2023-03-01T04:45:35;97620.59;;;-6.46;70.61
69980;BME280;57318;56.232;43.944;2023-03-01T04:48:02;97634.25;;;-6.43;70.93
69980;BME280;57318;56.232;43.944;2023-03-01T04:50:29;97622.94;;;-6.40;71.37
69980;BME280;57318;56.232;43.944;2023-03-01T04:52:55;97627.06;;;-6.36;71.14
69980;BME280;57318;56.232;43.944;2023-03-01T04:55:27;97629.41;;;-6.30;71.22
69980;BME280;57318;56.232;43.944;2023-03-01T04:57:54;97627.66;;;-6.29;71.00
69980;BME280;57318;56.232;43.944;2023-03-01T05:00:22;97626.69;;;-6.27;70.78
69980;BME280;57318;56.232;43.944;2023-03-01T05:02:55;97632.69;;;-6.26;70.75
69980;BME280;57318;56.232;43.944;2023-03-01T05:05:25;97636.25;;;-6.29;70.35
69980;BME280;57318;56.232;43.944;2023-03-01T05:08:01;97635.34;;;-6.28;70.39
69980;BME280;57318;56.232;43.944;2023-03-01T05:10:29;97630.81;;;-6.23;70.55
69980;BME280;57318;56.232;43.944;2023-03-01T05:12:56;97634.47;;;-6.27;69.85
69980;BME280;57318;56.232;43.944;2023-03-01T05:15:23;97634.78;;;-6.14;69.99
69980;BME280;57318;56.232;43.944;2023-03-01T05:17:54;97628.25;;;-6.02;69.77
69980;BME280;57318;56.232;43.944;2023-03-01T05:20:21;97633.22;;;-5.97;69.29
69980;BME280;57318;56.232;43.944;2023-03-01T05:22:55;97634.50;;;-5.87;69.52
69980;BME280;57318;56.232;43.944;2023-03-01T05:25:21;97646.97;;;-5.76;68.59
69980;BME280;57318;56.232;43.944;2023-03-01T05:27:47;97640.16;;;-5.79;68.71
69980;BME280;57318;56.232;43.944;2023-03-01T05:30:14;97643.81;;;-5.83;68.59
69980;BME280;57318;56.232;43.944;2023-03-01T05:32:47;97643.66;;;-5.80;68.75
69980;BME280;57318;56.232;43.944;2023-03-01T05:35:15;97638.47;;;-5.80;68.72
69980;BME280;57318;56.232;43.944;2023-03-01T05:37:45;97639.28;;;-5.78;68.49
69980;BME280;57318;56.232;43.944;2023-03-01T05:40:14;97643.19;;;-5.69;68.68
69980;BME280;57318;56.232;43.944;2023-03-01T05:42:48;97648.38;;;-5.69;67.94
69980;BME280;57318;56.232;43.944;2023-03-01T05:45:16;97648.09;;;-5.63;67.90
69980;BME280;57318;56.232;43.944;2023-03-01T05:47:43;97647.56;;;-5.51;68.07
69980;BME280;57318;56.232;43.944;2023-03-01T05:50:29;97648.16;;;-5.25;67.07
69980;BME280;57318;56.232;43.944;2023-03-01T05:55:23;97648.84;;;-4.64;65.21
69980;BME280;57318;56.232;43.944;2023-03-01T05:57:50;97659.28;;;-4.12;64.21
69980;BME280;57318;56.232;43.944;2023-03-01T06:00:18;97652.34;;;-3.10;61.05
69980;BME280;57318;56.232;43.944;2023-03-01T06:02:44;97658.06;;;-2.09;58.59
69980;BME280;57318;56.232;43.944;2023-03-01T06:05:12;97663.16;;;-1.03;55.67
69980;BME280;57318;56.232;43.944;2023-03-01T06:07:38;97656.47;;;-0.80;52.83
69980;BME280;57318;56.232;43.944;2023-03-01T06:10:05;97649.81;;;-0.84;52.59
69980;BME280;57318;56.232;43.944;2023-03-01T06:12:33;97665.88;;;-0.09;51.43
69980;BME280;57318;56.232;43.944;2023-03-01T06:14:58;97665.66;;;0.34;49.70
69980;BME280;57318;56.232;43.944;2023-03-01T06:17:24;97651.66;;;0.87;47.56
69980;BME280;57318;56.232;43.944;2023-03-01T06:19:50;97670.13;;;2.55;45.26
69980;BME280;57318;56.232;43.944;2023-03-01T06:22:15;97671.56;;;2.59;44.25
69980;BME280;57318;56.232;43.944;2023-03-01T06:24:41;97661.13;;;3.15;44.22
69980;BME280;57318;56.232;43.944;2023-03-01T06:27:06;97668.28;;;3.13;42.56
69980;BME280;57318;56.232;43.944;2023-03-01T06:29:32;97667.16;;;1.88;43.39
69980;BME280;57318;56.232;43.944;2023-03-01T06:31:58;97662.00;;;1.01;44.87
69980;BME280;57318;56.232;43.944;2023-03-01T06:34:23;97667.84;;;1.55;44.46
69980;BME280;57318;56.232;43.944;2023-03-01T06:36:49;97664.69;;;2.92;42.27
69980;BME280;57318;56.232;43.944;2023-03-01T06:39:15;97660.63;;;3.33;40.56
69980;BME280;57318;56.232;43.944;2023-03-01T06:41:41;97657.53;;;3.05;42.26
69980;BME280;57318;56.232;43.944;2023-03-01T06:44:07;97656.13;;;3.12;41.36
69980;BME280;57318;56.232;43.944;2023-03-01T06:46:33;97657.00;;;2.55;41.09
69980;BME280;57318;56.232;43.944;2023-03-01T06:48:58;97650.38;;;3.30;40.90
69980;BME280;57318;56.232;43.944;2023-03-01T06:51:24;97654.47;;;3.77;41.08
69980;BME280;57318;56.232;43.944;2023-03-01T06:53:50;97659.25;;;4.05;40.08
69980;BME280;57318;56.232;43.944;2023-03-01T06:56:16;97649.78;;;3.81;40.79
69980;BME280;57318;56.232;43.944;2023-03-01T06:58:41;97652.22;;;3.61;39.32
69980;BME280;57318;56.232;43.944;2023-03-01T07:01:08;97651.69;;;2.67;40.73
69980;BME280;57318;56.232;43.944;2023-03-01T07:03:33;97642.41;;;1.20;42.41
69980;BME280;57318;56.232;43.944;2023-03-01T07:05:59;97644.63;;;0.23;45.44
69980;BME280;57318;56.232;43.944;2023-03-01T07:08:25;97647.59;;;-0.63;47.71
69980;BME280;57318;56.232;43.944;2023-03-01T07:10:58;97647.31;;;-1.00;49.08
69980;BME280;57318;56.232;43.944;2023-03-01T07:13:24;97656.34;;;-1.35;49.61
69980;BME280;57318;56.232;43.944;2023-03-01T07:15:50;97633.38;;;-1.87;50.17
69980;BME280;57318;56.232;43.944;2023-03-01T07:18:15;97647.28;;;-2.33;51.79
69980;BME280;57318;56.232;43.944;2023-03-01T07:20:41;97651.03;;;-2.53;52.80
69980;BME280;57318;56.232;43.944;2023-03-01T07:23:06;97651.53;;;-2.62;53.77
69980;BME280;57318;56.232;43.944;2023-03-01T07:25:32;97652.94;;;-2.73;53.60
69980;BME280;57318;56.232;43.944;2023-03-01T07:27:58;97655.53;;;-2.73;53.36
69980;BME280;57318;56.232;43.944;2023-03-01T07:30:25;97643.41;;;-2.26;53.26
69980;BME280;57318;56.232;43.944;2023-03-01T07:32:55;97651.03;;;-1.92;51.95
69980;BME280;57318;56.232;43.944;2023-03-01T07:35:21;97659.34;;;-2.16;51.77
69980;BME280;57318;56.232;43.944;2023-03-01T07:37:47;97651.56;;;-2.02;52.06
69980;BME280;57318;56.232;43.944;2023-03-01T07:40:13;97662.34;;;-2.08;51.76
69980;BME280;57318;56.232;43.944;2023-03-01T07:42:38;97669.28;;;-2.23;52.86
69980;BME280;57318;56.232;43.944;2023-03-01T07:45:05;97666.25;;;-2.47;53.19
69980;BME280;57318;56.232;43.944;2023-03-01T07:47:31;97672.50;;;-2.49;54.18
69980;BME280;57318;56.232;43.944;2023-03-01T07:49:57;97662.59;;;-2.59;54.04
69980;BME280;57318;56.232;43.944;2023-03-01T07:52:23;97659.41;;;-2.64;54.04
69980;BME280;57318;56.232;43.944;2023-03-01T07:54:49;97659.81;;;-2.56;53.95
69980;BME280;57318;56.232;43.944;2023-03-01T07:57:14;97673.47;;;-2.36;53.25
69980;BME280;57318;56.232;43.944;2023-03-01T07:59:40;97669.22;;;-2.37;53.63
69980;BME280;57318;56.232;43.944;2023-03-01T08:02:06;97661.16;;;-2.32;53.77
69980;BME280;57318;56.232;43.944;2023-03-01T08:04:32;97664.91;;;-2.38;53.38
69980;BME280;57318;56.232;43.944;2023-03-01T08:06:58;97677.19;;;-2.40;54.22
69980;BME280;57318;56.232;43.944;2023-03-01T08:09:24;97661.16;;;-2.32;53.99
69980;BME280;57318;56.232;43.944;2023-03-01T08:11:50;97666.44;;;-2.34;53.55
69980;BME280;57318;56.232;43.944;2023-03-01T08:14:15;97672.06;;;-2.42;53.62
69980;BME280;57318;56.232;43.944;2023-03-01T08:16:41;97675.09;;;-2.49;53.86
69980;BME280;57318;56.232;43.944;2023-03-01T08:19:09;97676.16;;;-2.54;53.95
69980;BME280;57318;56.232;43.944;2023-03-01T08:21:34;97677.78;;;-2.51;53.88
69980;BME280;57318;56.232;43.944;2023-03-01T08:24:05;97679.69;;;-2.70;53.64
69980;BME280;57318;56.232;43.944;2023-03-01T08:26:31;97678.44;;;-2.95;54.83
69980;BME280;57318;56.232;43.944;2023-03-01T08:28:59;97679.31;;;-3.12;55.54
69980;BME280;57318;56.232;43.944;2023-03-01T08:31:30;97684.34;;;-3.25;56.06
69980;BME280;57318;56.232;43.944;2023-03-01T08:33:59;97683.72;;;-3.30;55.77
69980;BME280;57318;56.232;43.944;2023-03-01T08:36:27;97696.19;;;-3.37;55.33
69980;BME280;57318;56.232;43.944;2023-03-01T08:38:53;97693.13;;;-3.28;56.07
69980;BME280;57318;56.232;43.944;2023-03-01T08:41:19;97695.41;;;-3.21;55.50
69980;BME280;57318;56.232;43.944;2023-03-01T08:43:45;97693.88;;;-3.26;55.30
69980;BME280;57318;56.232;43.944;2023-03-01T08:46:11;97700.44;;;-3.18;55.68
69980;BME280;57318;56.232;43.944;2023-03-01T08:48:37;97699.94;;;-3.09;55.96
69980;BME280;57318;56.232;43.944;2023-03-01T08:51:17;97716.34;;;-3.24;55.47
69980;BME280;57318;56.232;43.944;2023-03-01T08:53:43;97698.91;;;-3.22;56.43
69980;BME280;57318;56.232;43.944;2023-03-01T08:56:09;97701.97;;;-3.32;54.88
69980;BME280;57318;56.232;43.944;2023-03-01T08:58:35;97707.66;;;-3.41;54.42
69980;BME280;57318;56.232;43.944;2023-03-01T09:01:07;97703.22;;;-3.39;54.09
69980;BME280;57318;56.232;43.944;2023-03-01T09:03:33;97718.19;;;-3.27;53.90
69980;BME280;57318;56.232;43.944;2023-03-01T09:06:02;97710.34;;;-3.42;53.55
69980;BME280;57318;56.232;43.944;2023-03-01T09:08:28;97706.34;;;-3.32;54.15
69980;BME280;57318;56.232;43.944;2023-03-01T09:10:54;97704.41;;;-3.29;54.17
69980;BME280;57318;56.232;43.944;2023-03-01T09:13:20;97713.00;;;-3.44;53.70
69980;BME280;57318;56.232;43.944;2023-03-01T09:15:46;97702.31;;;-3.38;54.46
69980;BME280;57318;56.232;43.944;2023-03-01T09:18:11;97715.53;;;-3.42;54.40
69980;BME280;57318;56.232;43.944;2023-03-01T09:20:37;97707.63;;;-3.23;54.08
69980;BME280;57318;56.232;43.944;2023-03-01T09:23:02;97706.53;;;-3.19;54.15
69980;BME280;57318;56.232;43.944;2023-03-01T09:25:28;97724.59;;;-3.00;54.30
69980;BME280;57318;56.232;43.944;2023-03-01T09:27:54;97718.34;;;-2.80;53.88
69980;BME280;57318;56.232;43.944;2023-03-01T09:30:20;97718.09;;;-2.76;53.18
69980;BME280;57318;56.232;43.944;2023-03-01T09:32:46;97708.34;;;-2.88;53.93
69980;BME280;57318;56.232;43.944;2023-03-01T09:35:12;97706.13;;;-2.78;54.04
69980;BME280;57318;56.232;43.944;2023-03-01T09:37:38;97710.97;;;-2.72;53.87
69980;BME280;57318;56.232;43.944;2023-03-01T09:40:21;97717.78;;;-2.38;53.49
69980;BME280;57318;56.232;43.944;2023-03-01T09:43:07;97721.47;;;-1.79;52.74
69980;BME280;57318;56.232;43.944;2023-03-01T09:45:41;97710.88;;;-1.46;51.48
69980;BME280;57318;56.232;43.944;2023-03-01T09:48:18;97708.66;;;-1.38;50.94
69980;BME280;57318;56.232;43.944;2023-03-01T09:50:44;97710.38;;;-1.38;50.76
69980;BME280;57318;56.232;43.944;2023-03-01T09:53:17;97708.53;;;-1.51;50.70
69980;BME280;57318;56.232;43.944;2023-03-01T09:55:54;97715.25;;;-1.32;51.12
69980;BME280;57318;56.232;43.944;2023-03-01T10:03:43;97705.50;;;-0.29;47.35
69980;BME280;57318;56.232;43.944;2023-03-01T10:06:20;97705.63;;;-0.18;47.03
69980;BME280;57318;56.232;43.944;2023-03-01T10:09:17;97700.63;;;-0.63;46.88
69980;BME280;57318;56.232;43.944;2023-03-01T10:11:49;97699.78;;;-0.63;47.15
69980;BME280;57318;56.232;43.944;2023-03-01T10:14:33;97704.09;;;-0.77;46.93
69980;BME280;57318;56.232;43.944;2023-03-01T10:17:18;97701.94;;;-1.28;46.88
69980;BME280;57318;56.232;43.944;2023-03-01T10:19:47;97706.06;;;-1.23;48.21
69980;BME280;57318;56.232;43.944;2023-03-01T10:22:19;97716.38;;;-1.07;48.03
69980;BME280;57318;56.232;43.944;2023-03-01T10:24:50;97713.00;;;-1.38;48.17
69980;BME280;57318;56.232;43.944;2023-03-01T10:32:37;97717.94;;;-2.41;50.39
69980;BME280;57318;56.232;43.944;2023-03-01T10:35:35;97704.69;;;-2.68;50.92
69980;BME280;57318;56.232;43.944;2023-03-01T10:38:06;97708.38;;;-2.72;50.89
69980;BME280;57318;56.232;43.944;2023-03-01T10:40:34;97706.53;;;-2.86;50.91
69980;BME280;57318;56.232;43.944;2023-03-01T10:43:04;97701.25;;;-2.84;51.79
69980;BME280;57318;56.232;43.944;2023-03-01T10:45:38;97713.31;;;-2.83;51.72
69980;BME280;57318;56.232;43.944;2023-03-01T10:53:34;97711.09;;;-2.58;51.85
69980;BME280;57318;56.232;43.944;2023-03-01T10:58:33;97705.19;;;-2.77;51.49
69980;BME280;57318;56.232;43.944;2023-03-01T11:01:06;97716.34;;;-2.75;51.27
69980;BME280;57318;56.232;43.944;2023-03-01T11:04:17;97719.38;;;-2.67;51.85
69980;BME280;57318;56.232;43.944;2023-03-01T11:06:43;97730.44;;;-2.79;51.37
69980;BME280;57318;56.232;43.944;2023-03-01T11:09:22;97704.59;;;-2.98;52.07
69980;BME280;57318;56.232;43.944;2023-03-01T11:11:53;97723.09;;;-3.04;51.70
69980;BME280;57318;56.232;43.944;2023-03-01T11:14:24;97715.22;;;-3.03;52.31
69980;BME280;57318;56.232;43.944;2023-03-01T11:17:29;97711.88;;;-3.05;52.33
69980;BME280;57318;56.232;43.944;2023-03-01T11:20:17;97706.91;;;-3.10;52.27
69980;BME280;57318;56.232;43.944;2023-03-01T11:22:56;97714.06;;;-3.31;52.67
69980;BME280;57318;56.232;43.944;2023-03-01T11:25:26;97724.16;;;-3.42;53.43
69980;BME280;57318;56.232;43.944;2023-03-01T11:27:53;97712.72;;;-3.38;53.46
69980;BME280;57318;56.232;43.944;2023-03-01T11:33:05;97714.88;;;-3.30;52.72
69980;BME280;57318;56.232;43.944;2023-03-01T11:35:42;97714.22;;;-3.34;52.18
69980;BME280;57318;56.232;43.944;2023-03-01T11:40:43;97705.31;;;-3.12;51.83
69980;BME280;57318;56.232;43.944;2023-03-01T11:43:27;97713.78;;;-3.09;51.70
69980;BME280;57318;56.232;43.944;2023-03-01T11:52:02;97725.88;;;-1.66;48.95
69980;BME280;57318;56.232;43.944;2023-03-01T12:00:25;97724.66;;;-2.21;49.04
69980;BME280;57318;56.232;43.944;2023-03-01T12:13:50;97726.03;;;-2.95;51.22
69980;BME280;57318;56.232;43.944;2023-03-01T12:41:31;97743.88;;;-3.38;52.25
69980;BME280;57318;56.232;43.944;2023-03-01T12:46:55;97743.84;;;-3.55;52.28
69980;BME280;57318;56.232;43.944;2023-03-01T12:49:30;97750.59;;;-3.51;52.21
69980;BME280;57318;56.232;43.944;2023-03-01T12:54:38;97744.03;;;-3.41;51.47
69980;BME280;57318;56.232;43.944;2023-03-01T13:08:15;97734.44;;;-1.64;46.18
69980;BME280;57318;56.232;43.944;2023-03-01T13:10:49;97718.03;;;-1.80;47.09
69980;BME280;57318;56.232;43.944;2023-03-01T13:13:21;97724.06;;;-1.79;46.93
69980;BME280;57318;56.232;43.944;2023-03-01T13:15:47;97733.06;;;-1.55;46.37
69980;BME280;57318;56.232;43.944;2023-03-01T13:20:49;97732.47;;;-2.21;47.49
69980;BME280;57318;56.232;43.944;2023-03-01T13:26:12;97731.03;;;-2.74;48.88
69980;BME280;57318;56.232;43.944;2023-03-01T13:39:14;97737.78;;;-3.21;49.93
69980;BME280;57318;56.232;43.944;2023-03-01T13:41:54;97729.66;;;-3.48;50.52
69980;BME280;57318;56.232;43.944;2023-03-01T13:46:51;97745.09;;;-3.45;51.53
69980;BME280;57318;56.232;43.944;2023-03-01T13:49:41;97742.56;;;-3.47;51.59
69980;BME280;57318;56.232;43.944;2023-03-01T13:53:06;97739.19;;;-3.31;51.01
69980;BME280;57318;56.232;43.944;2023-03-01T13:58:02;97733.09;;;-3.48;51.99
69980;BME280;57318;56.232;43.944;2023-03-01T14:00:37;97743.84;;;-3.55;52.11
69980;BME280;57318;56.232;43.944;2023-03-01T14:03:16;97742.94;;;-3.72;52.72
69980;BME280;57318;56.232;43.944;2023-03-01T14:08:29;97742.06;;;-4.07;53.44
69980;BME280;57318;56.232;43.944;2023-03-01T14:14:10;97743.66;;;-4.22;54.31
69980;BME280;57318;56.232;43.944;2023-03-01T14:16:44;97739.66;;;-4.29;54.41
69980;BME280;57318;56.232;43.944;2023-03-01T14:19:24;97733.84;;;-4.35;54.95
69980;BME280;57318;56.232;43.944;2023-03-01T14:24:48;97739.31;;;-4.41;55.24
69980;BME280;57318;56.232;43.944;2023-03-01T14:27:15;97743.00;;;-4.45;54.94
69980;BME280;57318;56.232;43.944;2023-03-01T14:29:41;97738.84;;;-4.49;55.37
69980;BME280;57318;56.232;43.944;2023-03-01T14:34:52;97745.78;;;-4.49;55.77
69980;BME280;57318;56.232;43.944;2023-03-01T14:37:27;97739.00;;;-4.52;55.08
69980;BME280;57318;56.232;43.944;2023-03-01T14:39:54;97740.03;;;-4.56;54.90
69980;BME280;57318;56.232;43.944;2023-03-01T14:42:21;97729.66;;;-4.56;55.04
69980;BME280;57318;56.232;43.944;2023-03-01T14:44:50;97752.28;;;-4.60;55.11
69980;BME280;57318;56.232;43.944;2023-03-01T14:47:32;97742.13;;;-4.64;55.12
69980;BME280;57318;56.232;43.944;2023-03-01T14:50:10;97751.75;;;-4.66;55.54
69980;BME280;57318;56.232;43.944;2023-03-01T14:52:42;97739.06;;;-4.73;54.87
69980;BME280;57318;56.232;43.944;2023-03-01T14:57:51;97741.16;;;-4.81;55.36
69980;BME280;57318;56.232;43.944;2023-03-01T15:00:26;97750.88;;;-4.86;55.83
69980;BME280;57318;56.232;43.944;2023-03-01T15:02:55;97747.66;;;-4.91;56.35
69980;BME280;57318;56.232;43.944;2023-03-01T15:05:30;97752.22;;;-4.96;56.47
69980;BME280;57318;56.232;43.944;2023-03-01T15:08:00;97752.22;;;-4.96;56.40
69980;BME280;57318;56.232;43.944;2023-03-01T15:10:29;97767.19;;;-5.03;56.19
69980;BME280;57318;56.232;43.944;2023-03-01T15:12:56;97771.50;;;-5.03;56.81
69980;BME280;57318;56.232;43.944;2023-03-01T15:15:38;97761.53;;;-5.13;56.87
69980;BME280;57318;56.232;43.944;2023-03-01T15:18:12;97781.50;;;-5.15;56.82
69980;BME280;57318;56.232;43.944;2023-03-01T15:20:39;97779.19;;;-5.21;56.92